Portada
METAR-TAF:

METAR-TAF

Aeropuertos :

Aeropuerto de Yakutsk

Yakutsk, Rusia

latitud: 62-01N, longitud: 129-43E, altitud: 103 m

Observación

El informe se hizo hace 51 minutos, a las 22:00 UTC
Viento 2 kt del sur
Temperatura -36°C
Humedad 66%
Presión 1017 hPa
Visibilidad 10 km o más
sin nubes por debajo de 1500 m y sin presencia de cumulonimbus.

METAR: UEEE 202200Z 19001MPS CAVOK M36/M40 Q1017 R23/490148 NOSIG RMK QFE754

Hora: 07:51 (22:51 UTC)

Pronóstico

El informe se hizo hace 2 horas y 51 minutos, a las 20:00 UTC
Pronóstico válido del 20 a las 21 UTC al 22 a las 03 UTC
Viento 2 kt con dirección variable
Visibilidad: 5000 m
poca nieve
Temporalmente
del 20 a las 21 UTC al 21 a las 03 UTC
Visibilidad: 0300 m
poca nieve, niebla,

TAF: UEEE 202000Z 2021/2203 VRB01MPS 5000 -SN NSC TEMPO 2021/2103 0300 -SN FG

Observaciones y pronósticos meteorológicos de más de 4000 aeropuertos (mensajes METAR y TAF).

Los puntos amarillos y rojos representan las estaciones disponibles.

Ponga el ratón en el punto deseado para ver el nombre de la estación.

Haga clic para ver las observaciones y los pronósticos meteorológicos.

Para cambiar el mapa : haga clic en los botones verdes con una cruz de color negro para hacer un zoom, en el botón verde con un guión para alejar o en las flechas verdes para mapas adyacentes.


METAR-TAF: